This is the latest recevied weather packets stored in our database for station/object DG1GMY-10. If no packets are shown the sender has not sent any weather packets the latest 10 day(s).
| Time | Temp. | Humidity | Pressure | Rain* | Wind** | Luminosity | Snow |
|---|---|---|---|---|---|---|---|
| 1777773138 | 15° C | 62% | 1016.9 hPa | - | - | - | - |
| 1777769537 | 15° C | 65% | 1017.3 hPa | - | - | - | - |
| 1777765937 | 16.11° C | 55% | 1017.5 hPa | - | - | - | - |
| 1777762337 | 17.22° C | 57% | 1017.8 hPa | - | - | - | - |
| 1777758737 | 17.22° C | 62% | 1017.5 hPa | - | - | - | - |
| 1777755137 | 17.22° C | 66% | 1017.5 hPa | - | - | - | - |
| 1777751537 | 18.89° C | 56% | 1017.2 hPa | - | - | - | - |
| 1777747936 | 20.56° C | 54% | 1017.1 hPa | - | - | - | - |
| 1777744336 | 26.11° C | 43% | 1016.8 hPa | - | - | - | - |
| 1777740735 | 40.56° C | 14% | 1016.9 hPa | - | - | - | - |
| 1777737135 | 43.89° C | 13% | 1017.6 hPa | - | - | - | - |
| 1777733535 | 43.33° C | 13% | 1018.3 hPa | - | - | - | - |
| 1777729935 | 38.89° C | 18% | 1019.3 hPa | - | - | - | - |
| 1777726335 | 31.67° C | 25% | 1020.2 hPa | - | - | - | - |
| 1777722735 | 23.89° C | 36% | 1021 hPa | - | - | - | - |
| 1777719135 | 21.67° C | 39% | 1021.9 hPa | - | - | - | - |
| 1777715535 | 19.44° C | 44% | 1022.8 hPa | - | - | - | - |
| 1777711935 | 17.78° C | 45% | 1023.5 hPa | - | - | - | - |
| 1777708335 | 16.11° C | 54% | 1023.7 hPa | - | - | - | - |
| 1777704734 | 13.33° C | 57% | 1024.1 hPa | - | - | - | - |
| 1777701134 | 11.11° C | 72% | 1024 hPa | - | - | - | - |
| 1777697533 | 10° C | 70% | 1023.6 hPa | - | - | - | - |
| 1777693933 | 9.44° C | 67% | 1023.7 hPa | - | - | - | - |
| 1777690333 | 11.11° C | 54% | 1023.5 hPa | - | - | - | - |
| 1777686732 | 11.67° C | 50% | 1023.6 hPa | - | - | - | - |
* Rain since midnight (hover to see other rain measurements)
** Current wind speed in m/s (hover to see current wind gust speed)